Terminal Aerodrome Forecast
Issued by NWS Bismarck, ND

Home | Current Version | Previous Version | Text Only | Print | Product List | Glossary Off
Versions: 1 2 3 4 5 6 7 8 9 10 11 12 13 14 15 16 17 18 19

000
FTUS43 KBIS 050309 AAB
TAFBIS
TAF AMD
KBIS 050309Z 0503/0524 15005KT P6SM SCT100 SCT150
     FM050500 VRB05KT P6SM VCTS SCT050CB BKN120
     FM050800 36010KT P6SM SCT080 SCT120
     FM051400 34015KT P6SM -SHRA VCTS SCT025 OVC070CB=

USA.gov is the U.S. government's official web portal to all federal, state and local government web resources and services.